Currently 74°F in Hemet, California, USA
74°F
94°F / 65°F
calm
0.00"
Monday, October 16, 2017 8:51 PM PDT

Hemet, California Weather Summary
Last 36 Hours

Temperature Winds Hourly Humidity Dewpoint
Time Report Norm Report Norm Max Gusts Precip. Rpt. Norm Rpt. Norm Pressure
1Mon 08:51 PM  73.6°F  65°F  calm  calm  none  0.00"  15%  52%  21°F  47°F  30.08"
Mon 08:00 PM  77.2°F  67°F  calm  calm  none  0.00"  14%  50%  22°F  47°F  30.07"
Mon 07:00 PM  81.0°F  70°F  calm  1 mph  none  0.00"  10%  46%  17°F  47°F  30.05"
Mon 06:00 PM  88.5°F  74°F  calm  1 mph  9 mph  0.00"  9%  40%  20°F  48°F  30.03"
Mon 05:00 PM  92.1°F  79°F  7 mph W  2 mph  9 mph  0.00"  7%  34%  17°F  47°F  30.03"
Mon 04:00 PM  93.7°F  80°F  6 mph SW  2 mph  9 mph  0.00"  6%  32%  14°F  47°F  30.04"
2Mon 03:42 PM  93.9°F  80°F  calm  2 mph  7 mph  ----  8%  31%  21°F  46°F  30.04"
Mon 03:00 PM  93.4°F  80°F  calm  2 mph  9 mph  0.00"  9%  32%  24°F  46°F  30.05"
Mon 02:00 PM  92.5°F  79°F  2 mph W  2 mph  12 mph  0.00"  9%  33%  23°F  46°F  30.06"
Mon 01:00 PM  90.5°F  78°F  calm  1 mph  9 mph  0.00"  9%  35%  22°F  47°F  30.09"
Mon 12:00 PM  88.0°F  75°F  calm  1 mph  6 mph  0.00"  9%  39%  20°F  47°F  30.11"
Mon 11:00 AM  83.1°F  72°F  calm  calm  none  0.00"  13%  44%  25°F  48°F  30.13"
Mon 10:00 AM  80.1°F  68°F  calm  calm  none  0.00"  20%  50%  34°F  48°F  30.14"
Mon 09:00 AM  75.9°F  65°F  calm  calm  none  0.00"  22%  54%  33°F  48°F  30.14"
Mon 08:00 AM  68.2°F  61°F  calm  calm  none  0.00"  18%  56%  21°F  44°F  30.14"
Mon 07:00 AM  65.1°F  59°F  calm  calm  none  0.00"  17%  56%  17°F  43°F  30.13"
3Mon 06:58 AM  65.1°F  59°F  calm  calm  none  ----  18%  56%  19°F  43°F  30.13"
Mon 06:00 AM  65.8°F  59°F  calm  calm  none  0.00"  17%  56%  18°F  43°F  30.11"
Mon 05:00 AM  65.8°F  60°F  calm  calm  none  0.00"  17%  57%  18°F  44°F  30.11"
Mon 04:00 AM  66.9°F  60°F  calm  calm  none  0.00"  13%  57%  12°F  44°F  30.11"
Mon 03:00 AM  67.6°F  60°F  calm  calm  none  0.00"  13%  57%  13°F  44°F  30.13"
Mon 02:00 AM  67.8°F  61°F  calm  calm  none  0.00"  12%  56%  11°F  45°F  30.14"
Mon 01:00 AM  66.0°F  61°F  calm  calm  none  0.00"  13%  57%  12°F  45°F  30.15"
Mon 12:00 AM  67.3°F  62°F  calm  calm  none  0.00"  12%  57%  11°F  46°F  30.15"
Sun 11:00 PM  69.4°F  62°F  calm  calm  none  0.00"  11%  56%  10°F  46°F  30.16"
Sun 10:00 PM  70.3°F  63°F  calm  calm  none  0.00"  10%  55%  9°F  46°F  30.16"
Sun 09:00 PM  71.4°F  65°F  calm  calm  none  0.00"  10%  53%  10°F  47°F  30.15"
Sun 08:00 PM  74.7°F  67°F  calm  calm  none  0.00"  9%  51%  10°F  47°F  30.13"
Sun 07:00 PM  78.1°F  69°F  calm  1 mph  none  0.00"  8%  47%  9°F  48°F  30.11"
Sun 06:00 PM  86.7°F  74°F  calm  1 mph  7 mph  0.00"  7%  41%  13°F  48°F  30.09"
Sun 05:00 PM  90.5°F  78°F  calm  2 mph  9 mph  0.00"  6%  34%  12°F  47°F  30.08"
Sun 04:00 PM  91.4°F  80°F  4 mph SW  2 mph  9 mph  0.00"  6%  32%  12°F  46°F  30.08"
Sun 03:00 PM  91.4°F  80°F  calm  2 mph  10 mph  0.00"  6%  32%  12°F  46°F  30.09"
Sun 02:00 PM  89.8°F  79°F  calm  2 mph  8 mph  0.00"  7%  33%  15°F  46°F  30.10"
Sun 01:00 PM  87.3°F  77°F  calm  1 mph  9 mph  0.00"  8%  35%  16°F  47°F  30.13"
Sun 12:00 PM  84.6°F  75°F  calm  1 mph  none  0.00"  10%  39%  20°F  47°F  30.15"
Sun 11:00 AM  79.5°F  71°F  calm  calm  none  0.00"  14%  44%  24°F  48°F  30.16"
Sun 10:00 AM  73.9°F  68°F  calm  calm  none  0.00"  15%  50%  21°F  48°F  30.16"
Sun 09:00 AM  75.7°F  65°F  calm  calm  none  0.00"  11%  54%  15°F  47°F  30.15"

  1. Current weather data. No green row appears if the current weather data is also the high or low for the current day.
  2. High temperature for the current day.
  3. Low temperature for the current day.

The Hemet weather pages are a service of WeatherCurrents. Hemet, California is located in the San Jacinto Valley, in western Riverside County, at the foot of the San Jacinto mountains.
Copyright ©Mon Oct 16 20:53:24 PDT 2017  WeatherCurrents. All rights reserved. - Submit questions and comments - Privacy Policy

This page automatically refreshes every 10 minutes.